createdAt,value
2019-03-08T00:01:36.301Z,0.67
2019-03-08T00:04:05.974Z,0.77
2019-03-08T00:06:35.942Z,0.60
2019-03-08T00:09:06.393Z,0.80
2019-03-08T00:11:35.683Z,0.60
2019-03-08T00:14:04.959Z,0.77
2019-03-08T00:16:34.252Z,0.70
2019-03-08T00:19:03.607Z,0.67
2019-03-08T00:21:32.855Z,0.70
2019-03-08T00:24:02.032Z,0.43
2019-03-08T00:26:31.271Z,0.63
2019-03-08T00:29:00.732Z,0.43
2019-03-08T00:31:30.026Z,0.50
2019-03-08T00:33:59.249Z,0.67
2019-03-08T00:36:28.450Z,0.40
2019-03-08T00:38:57.794Z,0.60
2019-03-08T00:41:26.963Z,0.50
2019-03-08T00:43:56.225Z,0.50
2019-03-08T00:46:25.706Z,0.50
2019-03-08T00:48:54.964Z,0.37
2019-03-08T00:51:24.426Z,0.53
2019-03-08T00:53:53.677Z,0.50
2019-03-08T00:56:22.868Z,0.40
2019-03-08T00:58:55.047Z,0.60
2019-03-08T01:01:24.236Z,0.50
2019-03-08T01:03:53.797Z,0.50
2019-03-08T01:06:22.988Z,0.40
2019-03-08T01:08:52.558Z,0.30
2019-03-08T01:11:21.861Z,0.60
2019-03-08T01:13:51.452Z,0.63
2019-03-08T01:16:20.687Z,0.60
2019-03-08T01:18:49.879Z,0.50
2019-03-08T01:21:19.111Z,0.60
2019-03-08T01:23:48.301Z,0.50
2019-03-08T01:26:17.507Z,0.73
2019-03-08T01:28:46.866Z,0.70
2019-03-08T01:31:16.106Z,0.70
2019-03-08T01:33:45.297Z,0.50
2019-03-08T01:36:14.524Z,0.40
2019-03-08T01:38:43.711Z,0.63
2019-03-08T01:41:12.937Z,0.47
2019-03-08T01:43:42.131Z,0.60
2019-03-08T01:46:11.361Z,0.40
2019-03-08T01:48:40.548Z,0.40
2019-03-08T01:51:09.821Z,0.40
2019-03-08T01:53:39.010Z,0.30
2019-03-08T01:56:08.441Z,0.50
2019-03-08T01:58:37.607Z,0.50
2019-03-08T02:01:06.861Z,0.37
2019-03-08T02:03:36.052Z,0.40
2019-03-08T02:06:05.207Z,0.50
2019-03-08T02:08:34.460Z,0.40
2019-03-08T02:11:03.722Z,0.20
2019-03-08T02:13:33.329Z,0.43
2019-03-08T02:16:02.557Z,0.60
2019-03-08T02:18:31.802Z,0.23
2019-03-08T02:21:06.599Z,0.40
2019-03-08T02:23:32.234Z,0.30
2019-03-08T02:26:01.414Z,0.37
2019-03-08T02:28:31.223Z,0.87
2019-03-08T02:31:00.411Z,0.30
2019-03-08T02:33:29.635Z,0.60
2019-03-08T02:35:58.815Z,0.43
2019-03-08T02:38:28.234Z,0.50
2019-03-08T02:40:57.420Z,0.30
2019-03-08T02:43:26.673Z,0.40
2019-03-08T02:45:55.847Z,0.40
2019-03-08T02:48:25.092Z,0.20
2019-03-08T02:50:54.548Z,0.50
2019-03-08T02:53:23.748Z,0.40
2019-03-08T02:55:52.980Z,0.30
2019-03-08T02:58:22.159Z,0.50
2019-03-08T03:00:51.461Z,0.30
2019-03-08T03:03:21.083Z,0.60
2019-03-08T03:05:50.584Z,0.30
2019-03-08T03:08:19.769Z,0.43
2019-03-08T03:10:49.063Z,0.30
2019-03-08T03:13:18.233Z,0.40
2019-03-08T03:15:47.737Z,0.47
2019-03-08T03:18:16.940Z,0.40
2019-03-08T03:20:46.238Z,0.70
2019-03-08T03:23:15.566Z,0.40
2019-03-08T03:25:44.849Z,0.40
2019-03-08T03:28:14.044Z,0.43
2019-03-08T03:30:43.234Z,0.60
2019-03-08T03:33:12.770Z,0.50
2019-03-08T03:35:41.971Z,0.30
2019-03-08T03:38:11.213Z,0.30
2019-03-08T03:40:40.741Z,0.40
2019-03-08T03:43:09.969Z,0.40
2019-03-08T03:45:39.148Z,0.50
2019-03-08T03:48:08.455Z,0.40
2019-03-08T03:50:37.629Z,0.40
2019-03-08T03:53:06.867Z,0.30
2019-03-08T03:55:36.977Z,0.50
2019-03-08T03:58:06.242Z,0.50
2019-03-08T04:00:35.427Z,0.70
2019-03-08T04:03:04.734Z,0.57
2019-03-08T04:05:34.249Z,0.50
2019-03-08T04:08:03.433Z,0.67
2019-03-08T04:10:32.744Z,0.60
2019-03-08T04:13:01.936Z,0.60
2019-03-08T04:15:31.348Z,0.57
2019-03-08T04:18:00.536Z,0.60
2019-03-08T04:20:30.037Z,0.43
2019-03-08T04:22:59.216Z,0.40
2019-03-08T04:25:28.451Z,0.43
2019-03-08T04:27:57.618Z,0.50
2019-03-08T04:30:26.866Z,0.67
2019-03-08T04:32:56.353Z,0.43
2019-03-08T04:35:25.624Z,0.63
2019-03-08T04:37:54.785Z,0.60
2019-03-08T04:40:23.992Z,0.50
2019-03-08T04:42:53.200Z,0.40
2019-03-08T04:45:22.376Z,0.60
2019-03-08T04:47:51.596Z,0.60
2019-03-08T04:50:20.779Z,0.50
2019-03-08T04:52:50.015Z,1.00
2019-03-08T04:55:19.219Z,0.43
2019-03-08T04:57:48.756Z,0.50
2019-03-08T05:00:18.758Z,0.60
2019-03-08T05:02:48.013Z,0.50
2019-03-08T05:05:17.187Z,0.80
2019-03-08T05:07:46.445Z,0.60
2019-03-08T05:10:15.949Z,0.70
2019-03-08T05:12:45.190Z,0.60
2019-03-08T05:15:14.578Z,0.43
2019-03-08T05:17:43.814Z,0.50
2019-03-08T05:20:13.096Z,0.53
2019-03-08T05:22:42.677Z,0.50
2019-03-08T05:25:11.994Z,0.50
2019-03-08T05:27:41.167Z,0.63
2019-03-08T05:30:11.248Z,0.47
2019-03-08T05:32:40.565Z,0.87
2019-03-08T05:35:10.158Z,0.87
2019-03-08T05:37:39.335Z,0.50
2019-03-08T05:40:09.033Z,0.80
2019-03-08T05:42:38.205Z,0.67
2019-03-08T05:45:07.838Z,0.40
2019-03-08T05:47:36.979Z,0.63
2019-03-08T05:50:06.482Z,0.40
2019-03-08T05:52:35.661Z,0.63
2019-03-08T05:55:05.227Z,0.80
2019-03-08T05:57:34.414Z,0.60
2019-03-08T06:00:04.063Z,0.60
2019-03-08T06:02:33.232Z,0.60
2019-03-08T06:07:37.511Z,0.40
2019-03-08T06:10:27.784Z,0.80
2019-03-08T06:12:56.971Z,0.90
2019-03-08T06:15:26.211Z,1.17
2019-03-08T06:17:56.460Z,0.53
2019-03-08T06:20:25.820Z,0.70
2019-03-08T06:22:54.994Z,0.70
2019-03-08T06:25:24.255Z,0.73
2019-03-08T06:27:53.549Z,0.67
2019-03-08T06:30:22.793Z,0.90
2019-03-08T06:32:52.244Z,0.53
2019-03-08T06:35:21.535Z,0.50
2019-03-08T06:37:50.686Z,0.70
2019-03-08T06:40:19.990Z,0.93
2019-03-08T06:42:49.228Z,0.50
2019-03-08T06:45:19.182Z,0.67
2019-03-08T06:47:48.586Z,0.70
2019-03-08T06:50:17.772Z,0.50
2019-03-08T06:52:47.014Z,0.50
2019-03-08T06:55:16.224Z,0.60
2019-03-08T06:57:45.754Z,0.50
2019-03-08T07:00:24.738Z,0.43
2019-03-08T07:02:53.912Z,0.60
2019-03-08T07:05:23.094Z,0.50
2019-03-08T07:07:52.383Z,0.87
2019-03-08T07:10:21.614Z,0.60
2019-03-08T07:12:50.842Z,0.47
2019-03-08T07:15:20.202Z,0.53
2019-03-08T07:17:49.599Z,0.90
2019-03-08T07:20:26.730Z,0.50
2019-03-08T07:23:07.766Z,0.50
2019-03-08T07:26:02.142Z,0.50
2019-03-08T07:28:47.616Z,0.50
2019-03-08T07:31:54.210Z,0.73
2019-03-08T07:34:32.178Z,0.50
2019-03-08T07:37:29.795Z,0.77
2019-03-08T07:40:33.024Z,0.70
2019-03-08T07:43:19.689Z,0.40
2019-03-08T07:46:13.843Z,0.70
2019-03-08T07:49:04.771Z,0.50
2019-03-08T07:51:59.126Z,0.60
2019-03-08T07:54:59.518Z,0.70
2019-03-08T07:58:02.955Z,0.50
2019-03-08T08:00:40.843Z,0.53
2019-03-08T08:03:27.811Z,0.70
2019-03-08T08:06:16.824Z,0.20
2019-03-08T08:09:05.542Z,0.47
2019-03-08T08:11:56.655Z,0.40
2019-03-08T08:14:39.759Z,0.50
2019-03-08T08:17:16.821Z,0.60
2019-03-08T08:20:05.017Z,0.70
2019-03-08T08:22:47.891Z,0.40
2019-03-08T08:25:42.214Z,0.63
2019-03-08T08:28:33.426Z,0.63
2019-03-08T08:31:20.146Z,0.60
2019-03-08T08:34:03.509Z,0.40
2019-03-08T08:36:51.970Z,0.50
2019-03-08T08:39:52.384Z,0.40
2019-03-08T08:42:40.315Z,0.57
2019-03-08T08:45:23.157Z,0.50
2019-03-08T08:48:06.361Z,0.50
2019-03-08T09:13:31.061Z,0.40
2019-03-08T09:16:22.131Z,0.70
2019-03-08T09:19:02.163Z,0.27
2019-03-08T09:21:59.385Z,0.33
2019-03-08T09:24:34.690Z,0.50
2019-03-08T09:27:31.987Z,0.40
2019-03-08T09:30:20.144Z,0.30
2019-03-08T09:33:11.232Z,0.40
2019-03-08T09:35:50.953Z,0.40
2019-03-08T09:38:44.994Z,0.60
2019-03-08T09:41:24.405Z,0.40
2019-03-08T09:44:27.881Z,0.40
2019-03-08T09:47:28.177Z,0.40
2019-03-08T09:50:21.109Z,0.57
2019-03-08T09:53:12.589Z,0.40
2019-03-08T09:56:06.134Z,0.47
2019-03-08T09:59:03.538Z,0.30
2019-03-08T10:01:41.635Z,0.40
2019-03-08T10:04:35.990Z,0.43
2019-03-08T10:07:19.480Z,0.47
2019-03-08T10:10:14.050Z,0.40
2019-03-08T10:12:58.952Z,0.87
2019-03-08T10:15:59.031Z,0.50
2019-03-08T10:18:56.187Z,0.40
2019-03-08T10:21:42.871Z,0.43
2019-03-08T10:24:26.687Z,0.40
2019-03-08T10:27:14.728Z,0.40
2019-03-08T10:30:17.810Z,0.40
2019-03-08T10:33:03.072Z,0.20
2019-03-08T10:35:57.073Z,0.40
2019-03-08T10:38:43.961Z,0.50
2019-03-08T10:41:23.380Z,0.50
2019-03-08T10:44:08.719Z,0.40
2019-03-08T10:47:07.128Z,0.40
2019-03-08T10:50:00.907Z,0.60
2019-03-08T10:52:49.053Z,0.30
2019-03-08T10:55:31.150Z,0.43
2019-03-08T10:58:25.152Z,0.23
2019-03-08T11:01:17.642Z,0.40
2019-03-08T11:04:06.323Z,0.40
2019-03-08T11:07:04.054Z,0.30
2019-03-08T11:09:51.040Z,0.27
2019-03-08T11:12:48.254Z,0.70
2019-03-08T11:15:40.105Z,0.30
2019-03-08T11:18:25.145Z,0.60
2019-03-08T11:21:08.702Z,0.43
2019-03-08T11:23:47.814Z,0.40
2019-03-08T11:26:42.135Z,0.60
2019-03-08T11:29:25.685Z,0.40
2019-03-08T11:32:12.761Z,0.40
2019-03-08T11:35:01.045Z,0.60
2019-03-08T11:38:01.554Z,0.73
2019-03-08T11:40:43.072Z,0.40
2019-03-08T11:43:43.124Z,0.60
2019-03-08T11:46:21.268Z,0.50
2019-03-08T11:49:15.653Z,0.43
2019-03-08T11:52:02.620Z,0.50
2019-03-08T11:54:49.259Z,0.50
2019-03-08T11:57:32.109Z,0.50
2019-03-08T12:00:19.027Z,0.40
2019-03-08T12:03:10.260Z,0.60
2019-03-08T12:06:01.291Z,1.00
2019-03-08T12:08:52.248Z,0.43
2019-03-08T12:11:49.285Z,0.60
2019-03-08T12:14:33.994Z,0.80
2019-03-08T12:17:28.343Z,0.50
2019-03-08T12:20:15.511Z,1.00
2019-03-08T12:23:11.759Z,0.87
2019-03-08T12:25:58.626Z,1.10
2019-03-08T12:28:38.281Z,0.87
2019-03-08T12:31:29.712Z,0.53
2019-03-08T12:34:17.802Z,0.60
2019-03-08T12:37:08.848Z,0.60
2019-03-08T12:40:00.047Z,0.80
2019-03-08T12:42:51.290Z,0.60
2019-03-08T12:45:56.492Z,0.50
2019-03-08T12:48:44.334Z,0.77
2019-03-08T12:51:35.388Z,0.67
2019-03-08T12:54:19.492Z,0.73
2019-03-08T12:57:05.256Z,0.73
2019-03-08T12:59:44.515Z,0.70
2019-03-08T13:02:32.660Z,0.60
2019-03-08T13:05:13.183Z,0.60
2019-03-08T13:07:52.226Z,0.70
2019-03-08T13:10:22.188Z,0.50
2019-03-08T13:12:51.492Z,0.60
2019-03-08T13:15:21.863Z,1.03
2019-03-08T13:17:51.472Z,0.90
2019-03-08T13:20:20.723Z,0.60
2019-03-08T13:22:50.380Z,0.60
2019-03-08T13:25:20.149Z,0.73
2019-03-08T13:27:49.362Z,0.80
2019-03-08T13:30:20.728Z,0.70
2019-03-08T13:32:49.977Z,1.30
2019-03-08T13:35:19.223Z,1.13
2019-03-08T13:37:48.416Z,0.67
2019-03-08T13:40:17.652Z,1.03
2019-03-08T13:42:46.855Z,0.90
2019-03-08T13:45:16.817Z,1.00
2019-03-08T13:47:46.021Z,0.80
2019-03-08T13:50:15.341Z,0.77
2019-03-08T13:52:44.906Z,0.60
2019-03-08T13:55:14.374Z,0.90
2019-03-08T13:57:43.582Z,0.70
2019-03-08T14:00:15.150Z,0.80
2019-03-08T14:06:38.030Z,1.10
2019-03-08T14:09:10.534Z,1.00
2019-03-08T14:11:39.841Z,0.50
2019-03-08T14:14:09.045Z,1.13
2019-03-08T14:16:38.596Z,0.90
2019-03-08T14:19:07.890Z,1.63
2019-03-08T14:21:37.160Z,0.90
2019-03-08T14:24:06.643Z,0.80
2019-03-08T14:26:36.171Z,1.30
2019-03-08T14:29:05.635Z,0.83
2019-03-08T14:31:45.361Z,0.83
2019-03-08T14:34:17.062Z,0.80
2019-03-08T14:36:45.840Z,1.10
2019-03-08T14:39:15.062Z,0.90
2019-03-08T14:42:03.912Z,0.87
2019-03-08T14:44:55.597Z,0.87
2019-03-08T14:47:43.914Z,1.10
2019-03-08T14:50:13.412Z,0.90
2019-03-08T14:52:42.689Z,0.83
2019-03-08T14:55:19.034Z,0.90
2019-03-08T14:57:49.497Z,0.90
2019-03-08T15:00:20.736Z,0.80
2019-03-08T15:02:49.992Z,1.00
2019-03-08T15:05:20.390Z,1.07
2019-03-08T15:07:49.714Z,1.00
2019-03-08T15:10:19.984Z,0.83
2019-03-08T15:12:49.607Z,0.90
2019-03-08T15:15:18.876Z,1.00
2019-03-08T15:17:49.744Z,0.77
2019-03-08T15:20:19.118Z,0.80
2019-03-08T15:22:48.851Z,0.90
2019-03-08T15:25:18.065Z,1.10
2019-03-08T15:27:47.303Z,1.00
2019-03-08T15:30:17.272Z,1.10
2019-03-08T15:32:46.604Z,0.90
2019-03-08T15:35:16.902Z,0.90
2019-03-08T15:37:46.577Z,1.00
2019-03-08T15:40:17.917Z,0.80
2019-03-08T15:42:47.372Z,0.90
2019-03-08T15:45:16.991Z,0.87
2019-03-08T15:47:46.792Z,0.73
2019-03-08T15:50:16.607Z,1.10
2019-03-08T15:52:46.139Z,1.07
2019-03-08T15:55:15.769Z,0.77
2019-03-08T15:57:45.116Z,0.83
2019-03-08T16:00:16.913Z,1.10
2019-03-08T16:02:46.309Z,0.90
2019-03-08T16:05:16.099Z,0.80
2019-03-08T16:07:45.729Z,0.70
2019-03-08T16:10:15.988Z,0.87
2019-03-08T16:12:45.938Z,1.00
2019-03-08T16:15:15.860Z,0.80
2019-03-08T16:17:46.011Z,0.90
2019-03-08T16:20:16.077Z,1.10
2019-03-08T16:22:45.561Z,1.40
2019-03-08T16:25:15.254Z,1.10
2019-03-08T16:27:44.958Z,0.73
2019-03-08T16:30:22.577Z,1.10
2019-03-08T16:33:09.009Z,1.00
2019-03-08T16:35:49.244Z,0.80
2019-03-08T16:38:23.127Z,1.00
2019-03-08T16:41:26.306Z,0.70
2019-03-08T16:44:12.756Z,0.90
2019-03-08T16:47:00.944Z,1.27
2019-03-08T16:50:00.754Z,0.90
2019-03-08T16:52:42.977Z,1.10
2019-03-08T16:55:35.242Z,1.43
2019-03-08T16:58:31.301Z,0.93
2019-03-08T17:01:21.098Z,0.90
2019-03-08T17:04:01.342Z,0.83
2019-03-08T17:06:41.336Z,0.87
2019-03-08T17:09:38.848Z,1.50
2019-03-08T17:12:15.420Z,0.93
2019-03-08T17:14:51.816Z,1.30
2019-03-08T17:17:51.837Z,1.10
2019-03-08T17:20:36.022Z,0.90
2019-03-08T17:23:22.916Z,0.87
2019-03-08T17:26:09.042Z,1.00
2019-03-08T17:28:57.261Z,0.83
2019-03-08T17:31:34.756Z,0.87
2019-03-08T17:34:16.762Z,1.00
2019-03-08T17:37:01.157Z,1.00
2019-03-08T17:39:43.121Z,1.00
2019-03-08T17:42:40.499Z,0.73
2019-03-08T17:45:46.858Z,0.90
2019-03-08T17:48:34.113Z,1.13
2019-03-08T17:51:25.100Z,1.30
2019-03-08T17:54:18.883Z,1.07
2019-03-08T17:57:11.363Z,0.97
2019-03-08T17:59:58.369Z,1.03
2019-03-08T18:02:39.137Z,0.90
2019-03-08T18:05:19.065Z,0.80
2019-03-08T18:08:03.871Z,0.80
2019-03-08T18:10:57.346Z,0.80
2019-03-08T18:13:44.057Z,0.90
2019-03-08T18:16:18.255Z,1.00
2019-03-08T18:19:04.621Z,1.10
2019-03-08T18:21:39.404Z,1.20
2019-03-08T18:24:30.895Z,1.20
2019-03-08T18:27:17.508Z,0.90
2019-03-08T18:30:02.600Z,1.00
2019-03-08T18:32:45.984Z,0.90
2019-03-08T18:35:23.404Z,0.93
2019-03-08T18:38:14.635Z,0.80
2019-03-08T18:41:05.900Z,1.20
2019-03-08T18:43:56.803Z,1.03
2019-03-08T18:46:43.726Z,1.23
2019-03-08T18:49:40.813Z,1.00
2019-03-08T18:52:29.111Z,0.93
2019-03-08T18:55:20.648Z,1.90
2019-03-08T18:58:20.783Z,1.30
2019-03-08T19:01:15.223Z,1.10
2019-03-08T19:03:59.414Z,1.07
2019-03-08T19:06:45.347Z,1.83
2019-03-08T19:09:42.800Z,1.00
2019-03-08T19:12:36.988Z,1.00
2019-03-08T19:15:28.694Z,0.90
2019-03-08T19:18:35.269Z,1.40
2019-03-08T19:21:17.573Z,0.97
2019-03-08T19:23:53.784Z,0.80
2019-03-08T19:26:29.408Z,1.10
2019-03-08T19:29:05.675Z,1.20
2019-03-08T19:31:40.641Z,1.60
2019-03-08T19:34:25.553Z,1.57
2019-03-08T19:37:09.127Z,1.30
2019-03-08T19:40:06.544Z,1.40
2019-03-08T19:43:01.004Z,1.30
2019-03-08T19:46:01.418Z,1.10
2019-03-08T19:48:55.611Z,0.90
2019-03-08T19:51:49.722Z,1.27
2019-03-08T19:54:50.107Z,1.40
2019-03-08T19:57:39.473Z,1.40
2019-03-08T20:00:26.587Z,1.00
2019-03-08T20:03:32.836Z,1.50
2019-03-08T20:06:23.578Z,1.10
2019-03-08T20:08:58.835Z,1.03
2019-03-08T20:11:53.702Z,1.10
2019-03-08T20:14:45.311Z,2.57
2019-03-08T20:17:49.090Z,0.87
2019-03-08T20:20:56.625Z,1.20
2019-03-08T20:23:47.786Z,1.47
2019-03-08T20:26:38.936Z,1.30
2019-03-08T20:29:26.973Z,1.60
2019-03-08T20:32:14.202Z,1.00
2019-03-08T20:35:14.604Z,1.43
2019-03-08T20:37:56.712Z,1.03
2019-03-08T20:40:51.122Z,1.10
2019-03-08T20:43:37.792Z,1.07
2019-03-08T20:46:13.256Z,1.00
2019-03-08T20:48:42.423Z,1.10
2019-03-08T20:51:11.848Z,1.30
2019-03-08T20:53:41.314Z,0.90
2019-03-08T20:56:10.700Z,0.97
2019-03-08T20:58:40.119Z,0.90
2019-03-08T21:01:09.467Z,1.10
2019-03-08T21:03:39.091Z,1.30
2019-03-08T21:06:08.410Z,1.40
2019-03-08T21:08:37.615Z,1.63
2019-03-08T21:11:06.852Z,1.90
2019-03-08T21:13:36.090Z,1.60
2019-03-08T21:16:05.351Z,2.30
2019-03-08T21:18:34.540Z,2.43
2019-03-08T21:21:03.805Z,1.90
2019-03-08T21:23:32.987Z,2.17
2019-03-08T21:26:02.235Z,1.30
2019-03-08T21:28:31.409Z,1.60
2019-03-08T21:31:00.890Z,1.33
2019-03-08T21:33:30.405Z,1.10
2019-03-08T21:35:59.599Z,1.23
2019-03-08T21:38:28.899Z,1.33
2019-03-08T21:40:58.365Z,1.40
2019-03-08T21:43:27.780Z,1.37
2019-03-08T21:45:57.266Z,1.50
2019-03-08T21:48:26.544Z,1.40
2019-03-08T21:50:55.731Z,1.27
2019-03-08T21:53:24.963Z,1.53
2019-03-08T21:55:54.327Z,1.23
2019-03-08T21:58:23.679Z,1.40
2019-03-08T22:00:52.906Z,1.80
2019-03-08T22:03:22.215Z,1.30
2019-03-08T22:05:51.525Z,1.53
2019-03-08T22:08:20.974Z,1.60
2019-03-08T22:10:54.616Z,1.10
2019-03-08T22:13:23.902Z,1.40
2019-03-08T22:15:53.086Z,1.10
2019-03-08T22:18:22.319Z,1.00
2019-03-08T22:20:51.777Z,1.10
2019-03-08T22:23:21.013Z,1.33
2019-03-08T22:25:51.195Z,1.00
2019-03-08T22:28:20.732Z,1.20
2019-03-08T22:30:49.920Z,1.20
2019-03-08T22:33:19.600Z,1.10
2019-03-08T22:35:48.794Z,1.40
2019-03-08T22:38:17.992Z,1.90
2019-03-08T22:40:47.265Z,1.43
2019-03-08T22:43:16.440Z,1.63
2019-03-08T22:45:45.945Z,1.87
2019-03-08T22:48:15.129Z,1.63
2019-03-08T22:50:44.354Z,1.20
2019-03-08T22:53:13.781Z,1.17
2019-03-08T22:55:43.002Z,1.20
2019-03-08T22:58:12.181Z,1.30
2019-03-08T23:01:09.919Z,1.10
2019-03-08T23:03:39.400Z,1.20
2019-03-08T23:06:09.072Z,1.30
2019-03-08T23:08:38.426Z,1.87
2019-03-08T23:11:07.791Z,1.47
2019-03-08T23:13:37.104Z,1.23
2019-03-08T23:16:06.794Z,1.10
2019-03-08T23:18:36.028Z,1.13
2019-03-08T23:21:05.369Z,0.90
2019-03-08T23:23:34.571Z,1.10
2019-03-08T23:26:03.773Z,1.10
2019-03-08T23:28:40.709Z,1.00
2019-03-08T23:31:29.013Z,0.80
2019-03-08T23:33:58.389Z,0.90
2019-03-08T23:36:27.832Z,1.13
2019-03-08T23:38:57.123Z,1.07
2019-03-08T23:41:26.403Z,0.83
2019-03-08T23:43:55.728Z,1.17
2019-03-08T23:46:25.086Z,0.90
2019-03-08T23:48:54.412Z,0.90
2019-03-08T23:51:23.688Z,0.60
2019-03-08T23:53:53.414Z,0.87
2019-03-08T23:56:25.360Z,0.90
2019-03-08T23:58:54.978Z,0.70
